Time;durP1;ratioP1;P1;durP2;ratioP2;P2;SDS_P1;SDS_P2;PMS_P1;PMS_P2;Temp;Humidity;BMP_temperature;BMP_pressure;BME280_temperature;BME280_humidity;BME280_pressure;Samples;Min_cycle;Max_cycle;Signal;HPM_P1;HPM_P2
2021/07/29 00:01:12;;;;;;;;;2.00;1.00;;;;;27.44;41.06;101185.34;4956307;28;45592;-72
2021/07/29 00:03:37;;;;;;;;;1.00;1.00;;;;;27.50;40.45;101187.19;4961967;28;45405;-72
2021/07/29 00:06:02;;;;;;;;;1.33;1.00;;;;;27.39;41.08;101173.44;4946909;28;45933;-73
2021/07/29 00:08:28;;;;;;;;;2.33;1.00;;;;;27.50;40.83;101185.34;4946665;28;45983;-72
2021/07/29 00:10:53;;;;;;;;;3.00;1.00;;;;;27.42;40.99;101169.53;4951466;28;47267;-72
2021/07/29 00:13:18;;;;;;;;;1.00;1.00;;;;;27.51;40.90;101186.13;4951511;28;45426;-72
2021/07/29 00:15:44;;;;;;;;;2.00;2.00;;;;;27.43;41.00;101163.13;4951245;28;45545;-72
2021/07/29 00:20:38;;;;;;;;;2.00;2.00;;;;;27.48;40.87;101179.34;4946591;28;45700;-72
2021/07/29 00:23:05;;;;;;;;;3.00;1.00;;;;;27.51;40.71;101178.13;4949783;28;45230;-72
2021/07/29 00:25:30;;;;;;;;;1.00;1.00;;;;;27.37;40.89;101156.81;4958349;28;46126;-72
2021/07/29 00:27:56;;;;;;;;;1.00;1.00;;;;;27.51;40.75;101184.28;4959115;28;45400;-72
2021/07/29 00:30:23;;;;;;;;;1.00;1.00;;;;;27.51;40.50;101181.63;4949706;28;45258;-72
2021/07/29 00:32:51;;;;;;;;;1.00;0.00;;;;;27.52;41.12;101177.94;4946687;28;45792;-72
2021/07/29 00:35:17;;;;;;;;;1.00;1.00;;;;;27.44;40.60;101169.31;4948433;28;45352;-72
2021/07/29 00:37:55;;;;;;;;;2.33;1.00;;;;;27.53;41.04;101170.75;4949658;28;46041;-72
2021/07/29 00:40:21;;;;;;;;;1.67;1.00;;;;;27.51;40.85;101175.44;4957108;28;45480;-72
2021/07/29 00:42:46;;;;;;;;;1.00;1.00;;;;;27.54;40.73;101180.38;4960524;28;45467;-73
2021/07/29 00:45:12;;;;;;;;;3.33;1.00;;;;;27.50;40.83;101174.66;4947821;28;45479;-72
2021/07/29 00:47:40;;;;;;;;;1.00;1.00;;;;;27.54;40.69;101176.88;4946631;28;45223;-72
2021/07/29 00:50:06;;;;;;;;;1.00;1.00;;;;;27.50;40.81;101165.81;4961625;28;45421;-72
2021/07/29 00:52:32;;;;;;;;;2.00;1.00;;;;;27.48;40.64;101162.53;4953972;28;45572;-72
2021/07/29 00:54:58;;;;;;;;;1.00;1.00;;;;;27.53;41.37;101170.75;4950739;28;47152;-72
2021/07/29 00:57:23;;;;;;;;;2.33;0.33;;;;;27.48;41.09;101160.66;4949510;28;45425;-72
2021/07/29 00:59:49;;;;;;;;;1.00;1.00;;;;;27.57;40.66;101169.28;4946173;28;45362;-72
2021/07/29 01:02:15;;;;;;;;;0.33;0.33;;;;;27.57;40.65;101171.94;4949072;28;45296;-72
2021/07/29 01:04:41;;;;;;;;;1.00;1.00;;;;;27.49;40.79;101153.47;4959089;28;46881;-72
2021/07/29 01:07:06;;;;;;;;;1.00;1.00;;;;;27.57;40.72;101174.63;4956733;28;45362;-72
2021/07/29 01:09:32;;;;;;;;;2.75;1.50;;;;;27.56;41.10;101166.81;4947016;28;45263;-72
2021/07/29 01:11:57;;;;;;;;;2.00;2.00;;;;;27.51;40.76;101157.56;4943032;28;45568;-72
2021/07/29 01:14:22;;;;;;;;;1.00;1.00;;;;;27.57;41.31;101176.47;4944378;28;52540;-73
2021/07/29 01:16:48;;;;;;;;;1.00;1.00;;;;;27.57;40.95;101176.47;4957313;28;45357;-72
2021/07/29 01:19:14;;;;;;;;;1.00;1.00;;;;;27.52;41.24;101166.41;4958232;28;45679;-72
2021/07/29 01:21:40;;;;;;;;;1.33;1.33;;;;;27.56;40.94;101178.31;4957569;28;45342;-72
2021/07/29 01:24:06;;;;;;;;;1.00;1.00;;;;;27.48;41.09;101165.19;4943485;28;45424;-72
2021/07/29 01:26:32;;;;;;;;;2.00;2.00;;;;;27.57;40.80;101173.78;4943344;28;45395;-72
2021/07/29 01:28:59;;;;;;;;;1.33;1.00;;;;;27.57;41.17;101182.63;4958185;28;45448;-72
2021/07/29 01:31:26;;;;;;;;;1.00;0.50;;;;;27.56;41.35;101178.31;4951488;28;45150;-72
2021/07/29 01:33:52;;;;;;;;;2.33;1.00;;;;;27.55;41.09;101183.88;4946628;28;47034;-72
2021/07/29 01:36:17;;;;;;;;;0.00;0.00;;;;;27.57;40.78;101187.16;4944842;28;45248;-72
2021/07/29 01:38:42;;;;;;;;;1.00;1.00;;;;;27.53;41.12;101181.44;4942717;28;45326;-72
2021/07/29 01:41:08;;;;;;;;;3.00;2.00;;;;;27.58;40.99;101192.31;4946245;28;45518;-72
2021/07/29 01:43:33;;;;;;;;;1.00;1.00;;;;;27.55;41.34;101178.53;4954574;28;46023;-72
2021/07/29 01:46:00;;;;;;;;;1.00;1.00;;;;;27.57;40.54;101176.47;4954740;28;45516;-72
2021/07/29 01:48:26;;;;;;;;;1.00;1.00;;;;;27.57;41.02;101190.66;4945661;28;45639;-72
2021/07/29 01:50:52;;;;;;;;;0.00;0.00;;;;;27.57;40.93;101193.31;4942407;28;45378;-72
2021/07/29 01:53:18;;;;;;;;;3.25;1.50;;;;;27.49;40.88;101172.16;4944440;28;46024;-72
2021/07/29 01:55:44;;;;;;;;;1.00;1.00;;;;;27.58;40.92;101191.47;4946575;28;45509;-72
2021/07/29 01:58:10;;;;;;;;;1.00;1.00;;;;;27.48;41.01;101176.69;4951475;28;45363;-72
2021/07/29 02:00:37;;;;;;;;;1.33;1.33;;;;;27.58;41.13;101199.50;4957544;28;45493;-72
2021/07/29 02:03:03;;;;;;;;;0.00;0.00;;;;;27.51;40.83;101189.63;4942081;28;45426;-72
2021/07/29 02:05:28;;;;;;;;;0.00;0.00;;;;;27.32;40.92;101159.28;4954118;28;45612;-72
2021/07/29 02:07:54;;;;;;;;;1.00;1.00;;;;;27.57;41.35;101204.00;4946956;28;45356;-72
2021/07/29 02:10:19;;;;;;;;;1.00;0.00;;;;;27.51;41.32;101188.81;4946778;28;45440;-72
2021/07/29 02:12:44;;;;;;;;;1.00;1.00;;;;;27.57;41.43;101195.16;4946657;28;46522;-72
2021/07/29 02:15:10;;;;;;;;;2.00;2.00;;;;;27.56;41.05;101198.91;4943337;28;45299;-73
2021/07/29 02:17:35;;;;;;;;;1.00;1.00;;;;;27.55;41.10;101195.41;4942029;28;45340;-72
2021/07/29 02:20:01;;;;;;;;;1.00;1.00;;;;;27.48;40.75;101191.91;4945137;28;45512;-72
2021/07/29 02:22:26;;;;;;;;;1.67;1.67;;;;;27.52;40.83;101187.78;4968078;28;46198;-72
2021/07/29 02:24:51;;;;;;;;;1.67;1.67;;;;;27.53;41.30;101194.78;4955058;28;45366;-72
2021/07/29 02:27:18;;;;;;;;;0.33;0.33;;;;;27.57;41.08;101201.34;4944466;28;45313;-72
2021/07/29 02:29:44;;;;;;;;;1.00;1.00;;;;;27.58;41.32;101202.16;4942038;28;45318;-72
2021/07/29 02:32:09;;;;;;;;;1.00;1.00;;;;;27.57;40.95;101204.00;4944665;28;46508;-73
2021/07/29 02:34:34;;;;;;;;;1.00;1.00;;;;;27.59;41.31;101201.13;4946251;28;45398;-72
2021/07/29 02:37:00;;;;;;;;;1.00;1.00;;;;;27.58;40.72;101200.31;4949667;28;45357;-72
2021/07/29 02:39:25;;;;;;;;;2.00;0.00;;;;;27.59;41.01;101204.63;4957457;28;45258;-72
2021/07/29 02:41:50;;;;;;;;;2.00;1.00;;;;;27.59;41.43;101209.97;4941457;28;45331;-72
2021/07/29 02:44:16;;;;;;;;;2.00;1.67;;;;;27.34;41.00;101167.91;4944241;28;45435;-72
2021/07/29 02:46:41;;;;;;;;;0.67;0.67;;;;;27.55;40.80;101200.72;4945814;28;45417;-72
2021/07/29 02:49:06;;;;;;;;;1.00;1.00;;;;;27.58;41.35;101205.66;4944922;28;45553;-72
2021/07/29 02:51:32;;;;;;;;;1.00;1.00;;;;;27.59;41.09;101215.31;4945746;28;45962;-72
2021/07/29 02:53:57;;;;;;;;;2.00;2.00;;;;;27.56;40.80;101207.72;4941306;28;45452;-72
2021/07/29 02:56:22;;;;;;;;;1.00;1.00;;;;;27.51;41.21;101196.81;4943128;28;45427;-72
2021/07/29 02:58:48;;;;;;;;;1.67;1.00;;;;;27.59;41.43;101203.78;4945912;28;45259;-73
2021/07/29 03:01:14;;;;;;;;;2.00;0.67;;;;;27.60;41.12;101210.78;4950488;28;46067;-73
2021/07/29 03:03:42;;;;;;;;;0.67;0.67;;;;;27.60;41.01;101205.44;4956122;28;45377;-73
2021/07/29 03:06:07;;;;;;;;;2.00;0.33;;;;;27.50;40.81;101196.03;4942290;28;45441;-73
2021/07/29 03:08:33;;;;;;;;;1.00;1.00;;;;;27.49;41.43;101189.03;4941554;28;45389;-72
2021/07/29 03:10:58;;;;;;;;;0.67;0.67;;;;;27.60;40.80;101218.81;4945688;28;45401;-72
2021/07/29 03:13:25;;;;;;;;;1.00;1.00;;;;;27.57;41.37;101213.88;4945590;28;45377;-72
2021/07/29 03:15:51;;;;;;;;;1.00;1.00;;;;;27.58;41.00;101211.00;4947508;28;45415;-73
2021/07/29 03:18:16;;;;;;;;;2.00;1.67;;;;;27.59;41.20;101217.16;4956883;28;45418;-72
2021/07/29 03:20:43;;;;;;;;;1.00;1.00;;;;;27.59;41.27;101217.97;4956544;28;46317;-72
2021/07/29 03:23:09;;;;;;;;;1.00;1.00;;;;;27.59;40.87;101219.81;4944456;28;45442;-72
2021/07/29 03:25:34;;;;;;;;;2.00;0.67;;;;;27.44;40.70;101188.84;4945359;28;45580;-72
2021/07/29 03:28:00;;;;;;;;;0.00;0.00;;;;;27.59;41.06;101217.16;4945606;28;45624;-72
2021/07/29 03:30:25;;;;;;;;;0.67;0.67;;;;;27.53;41.24;101205.47;4943450;28;46591;-72
2021/07/29 03:32:51;;;;;;;;;2.00;1.00;;;;;27.60;41.47;101224.97;4940914;28;45390;-72
2021/07/29 03:35:16;;;;;;;;;0.00;0.00;;;;;27.58;40.99;101212.84;4943701;28;45289;-72
2021/07/29 03:37:42;;;;;;;;;0.00;0.00;;;;;27.60;41.35;101218.81;4945341;28;45500;-72
2021/07/29 03:40:08;;;;;;;;;1.00;1.00;;;;;27.54;40.94;101214.28;4949498;28;45353;-73
2021/07/29 03:42:34;;;;;;;;;0.33;0.33;;;;;27.54;41.40;101204.44;4956232;28;45315;-72
2021/07/29 03:45:01;;;;;;;;;2.00;1.00;;;;;27.51;41.40;101205.66;4940486;28;45309;-72
2021/07/29 03:47:27;;;;;;;;;0.33;0.33;;;;;27.58;41.39;101216.34;4942107;28;45261;-72
2021/07/29 03:49:53;;;;;;;;;1.00;0.00;;;;;27.57;41.06;101219.22;4955405;28;47686;-72
2021/07/29 03:52:18;;;;;;;;;0.33;0.33;;;;;27.58;41.41;101226.22;4950072;28;45531;-72
2021/07/29 03:54:44;;;;;;;;;1.00;0.00;;;;;27.57;41.23;101227.25;4946406;28;45448;-72
2021/07/29 03:57:10;;;;;;;;;1.00;1.00;;;;;27.38;41.33;101195.00;4956223;28;45328;-72
2021/07/29 03:59:38;;;;;;;;;1.00;1.00;;;;;27.55;41.52;101222.13;4940296;28;46381;-72
2021/07/29 04:02:10;;;;;;;;;0.67;0.67;;;;;27.54;40.91;101217.78;4944738;28;45381;-72
2021/07/29 04:04:40;;;;;;;;;0.33;0.33;;;;;27.56;41.52;101215.72;4943745;28;45569;-72
2021/07/29 04:07:07;;;;;;;;;0.33;0.33;;;;;27.56;40.96;101220.28;4945102;28;45279;-72
2021/07/29 04:09:33;;;;;;;;;0.33;0.33;;;;;27.55;41.04;101211.44;4944476;28;47175;-72
2021/07/29 04:11:59;;;;;;;;;1.33;0.33;;;;;27.51;40.71;101213.69;4940376;28;45455;-72
2021/07/29 04:14:24;;;;;;;;;1.00;1.00;;;;;27.55;41.03;101207.94;4941603;28;45359;-72
2021/07/29 04:16:55;;;;;;;;;1.00;1.00;;;;;27.49;40.96;101213.06;4944814;28;45341;-72
2021/07/29 04:19:21;;;;;;;;;1.00;1.00;;;;;27.53;41.53;101218.84;4951002;28;46260;-72
2021/07/29 04:21:47;;;;;;;;;1.00;1.00;;;;;27.55;41.08;101224.78;4953977;28;45590;-72
2021/07/29 04:24:12;;;;;;;;;0.00;0.00;;;;;27.56;41.32;101220.28;4941938;28;45436;-72
2021/07/29 04:26:40;;;;;;;;;1.67;1.00;;;;;27.56;41.10;101225.63;4940229;28;45400;-73
2021/07/29 04:29:06;;;;;;;;;1.67;0.00;;;;;27.48;41.56;101211.41;4943123;28;47191;-72
2021/07/29 04:31:31;;;;;;;;;0.00;0.00;;;;;27.51;41.37;101219.03;4944598;28;45382;-72
2021/07/29 04:33:57;;;;;;;;;1.00;1.00;;;;;27.54;41.43;101219.63;4947583;28;45461;-72
2021/07/29 04:36:22;;;;;;;;;0.33;0.33;;;;;27.54;41.26;101222.31;4955744;28;45314;-72
2021/07/29 04:38:47;;;;;;;;;2.00;0.67;;;;;27.56;40.78;101226.41;4940156;28;46097;-72
2021/07/29 04:41:13;;;;;;;;;0.67;0.00;;;;;27.50;41.43;101222.75;4955635;28;45309;-72
2021/07/29 04:43:38;;;;;;;;;0.67;0.67;;;;;27.56;41.24;101225.63;4948921;28;45785;-72
2021/07/29 04:46:03;;;;;;;;;1.00;1.00;;;;;27.57;41.04;101221.91;4948077;28;45408;-72
2021/07/29 04:48:32;;;;;;;;;1.00;1.00;;;;;27.55;41.16;101223.97;4947045;28;46262;-72
2021/07/29 04:51:05;;;;;;;;;0.00;0.00;;;;;27.57;41.28;101235.25;4943285;28;45239;-72
2021/07/29 04:53:32;;;;;;;;;1.00;1.00;;;;;27.50;41.07;101225.41;4955504;28;45291;-72
2021/07/29 04:55:58;;;;;;;;;0.00;0.00;;;;;27.55;40.91;101232.81;4957329;28;45444;-72
2021/07/29 04:58:23;;;;;;;;;0.00;0.00;;;;;27.52;41.45;101238.56;4958357;28;46355;-72
2021/07/29 05:00:49;;;;;;;;;0.67;0.67;;;;;27.55;41.29;101231.97;4956888;28;45262;-72
2021/07/29 05:03:14;;;;;;;;;1.00;1.00;;;;;27.49;41.31;101226.44;4944989;28;45733;-72
2021/07/29 05:05:39;;;;;;;;;1.00;1.00;;;;;27.55;41.43;101234.66;4958673;28;45506;-72
2021/07/29 05:08:05;;;;;;;;;1.00;1.00;;;;;27.55;41.08;101240.00;4947115;28;45313;-72
2021/07/29 05:10:30;;;;;;;;;1.00;0.00;;;;;27.55;40.89;101237.31;4947120;28;45340;-72
2021/07/29 05:12:56;;;;;;;;;1.67;0.00;;;;;27.55;41.04;101234.66;4948311;28;45434;-72
2021/07/29 05:15:21;;;;;;;;;1.00;1.00;;;;;27.55;41.51;101231.97;4958593;28;45442;-72
2021/07/29 05:17:54;;;;;;;;;0.00;0.00;;;;;27.54;41.05;101231.16;4942787;28;45396;-71
2021/07/29 05:20:19;;;;;;;;;1.00;1.00;;;;;27.55;41.22;101242.66;4957459;28;45698;-72
2021/07/29 05:22:45;;;;;;;;;1.33;1.33;;;;;27.54;41.51;101247.19;4949009;28;45490;-70
2021/07/29 05:25:10;;;;;;;;;0.00;0.00;;;;;27.48;41.22;101232.78;4947055;28;45286;-71
2021/07/29 05:27:36;;;;;;;;;1.00;1.00;;;;;27.54;41.12;101246.34;4947276;28;45369;-72
2021/07/29 05:30:01;;;;;;;;;2.00;0.00;;;;;27.53;41.56;101240.22;4942908;28;45532;-72
2021/07/29 05:32:27;;;;;;;;;1.00;0.00;;;;;27.49;41.76;101244.31;4944087;28;45582;-73
2021/07/29 05:34:52;;;;;;;;;1.00;1.00;;;;;27.46;41.59;101237.53;4947103;28;45385;-74
2021/07/29 05:37:17;;;;;;;;;0.00;0.00;;;;;27.49;40.88;101241.66;4952566;28;47121;-73
2021/07/29 05:39:43;;;;;;;;;0.67;0.67;;;;;27.55;40.96;101253.34;4956679;28;45546;-75
2021/07/29 05:42:08;;;;;;;;;3.00;0.67;;;;;27.42;41.25;101230.16;4943473;28;45852;-72
2021/07/29 05:44:36;;;;;;;;;2.75;1.00;;;;;27.51;39.93;101248.41;4942827;28;45295;-70
2021/07/29 05:47:01;;;;;;;;;2.00;2.00;;;;;27.32;39.13;101255.44;4946314;28;46254;-72
2021/07/29 05:49:26;;;;;;;;;4.00;1.75;;;;;27.01;39.40;101246.19;4951174;28;46561;-72
2021/07/29 05:51:52;;;;;;;;;2.00;1.00;;;;;26.84;39.33;101255.41;4956888;28;45510;-72
2021/07/29 05:54:17;;;;;;;;;3.00;1.50;;;;;26.60;39.40;101257.59;4956321;28;45389;-72
2021/07/29 05:56:42;;;;;;;;;2.00;2.00;;;;;26.47;39.42;101262.91;4955205;28;46980;-72
2021/07/29 05:59:08;;;;;;;;;2.25;2.00;;;;;26.29;39.55;101245.56;4955709;28;45318;-73
2021/07/29 06:01:33;;;;;;;;;3.00;1.75;;;;;26.18;40.00;101255.78;4952659;28;45226;-72
2021/07/29 06:03:58;;;;;;;;;2.00;1.50;;;;;26.02;39.92;101248.16;4950310;28;45357;-73
2021/07/29 06:06:24;;;;;;;;;1.00;1.00;;;;;25.89;40.04;101259.56;4950708;28;46874;-72
2021/07/29 06:08:53;;;;;;;;;2.33;1.33;;;;;25.79;40.05;101260.72;4947240;28;45452;-72
2021/07/29 06:11:18;;;;;;;;;2.00;1.00;;;;;25.65;40.16;101257.13;4956673;28;45346;-73
2021/07/29 06:13:43;;;;;;;;;4.75;1.50;;;;;25.56;40.79;101256.44;4955508;28;45630;-73
2021/07/29 06:16:10;;;;;;;;;2.75;0.50;;;;;25.58;41.00;101267.72;4957195;28;47003;-73
2021/07/29 06:18:41;;;;;;;;;3.00;1.00;;;;;25.68;41.08;101263.91;4957529;28;45317;-72
2021/07/29 06:21:07;;;;;;;;;2.25;1.25;;;;;25.57;41.08;101225.31;4942625;28;45432;-73
2021/07/29 06:23:32;;;;;;;;;1.25;1.00;;;;;25.94;41.09;101265.13;4942016;28;45383;-74
2021/07/29 06:25:57;;;;;;;;;1.00;1.00;;;;;25.95;41.11;101251.59;4946486;28;45611;-74
2021/07/29 06:28:24;;;;;;;;;3.75;2.25;;;;;26.02;40.90;101243.59;4946299;28;45390;-74
2021/07/29 06:30:50;;;;;;;;;1.00;1.00;;;;;26.24;41.06;101272.00;4948351;28;45563;-74
2021/07/29 06:33:15;;;;;;;;;1.33;1.33;;;;;26.28;41.02;101266.09;4957356;28;45551;-73
2021/07/29 06:35:40;;;;;;;;;2.00;0.00;;;;;26.33;41.00;101257.50;4958550;28;46324;-74
2021/07/29 06:38:06;;;;;;;;;1.00;1.00;;;;;26.40;41.07;101263.69;4945209;28;45325;-74
2021/07/29 06:40:31;;;;;;;;;1.00;1.00;;;;;26.45;40.92;101262.28;4944813;28;45402;-74
2021/07/29 06:42:56;;;;;;;;;0.67;0.00;;;;;26.60;40.50;101267.44;4946186;28;45572;-74
2021/07/29 06:45:22;;;;;;;;;2.00;1.00;;;;;26.63;40.85;101275.06;4944409;28;46953;-71
2021/07/29 06:47:48;;;;;;;;;2.00;0.67;;;;;26.68;40.66;101277.94;4941536;28;45282;-74
2021/07/29 06:50:13;;;;;;;;;0.67;0.67;;;;;26.75;40.58;101280.66;4944943;28;45313;-74
2021/07/29 06:52:38;;;;;;;;;1.00;1.00;;;;;26.80;40.67;101277.38;4954247;28;45592;-73
2021/07/29 06:55:05;;;;;;;;;2.67;1.33;;;;;26.80;40.97;101267.50;4956701;28;47262;-73
2021/07/29 06:57:30;;;;;;;;;2.67;0.67;;;;;26.87;40.86;101285.38;4956834;28;46672;-72
2021/07/29 06:59:56;;;;;;;;;2.00;2.00;;;;;26.92;40.38;101282.91;4941419;28;45291;-72
2021/07/29 07:02:21;;;;;;;;;2.67;2.67;;;;;26.72;40.29;101246.34;4943458;28;45541;-72
2021/07/29 07:04:46;;;;;;;;;1.00;0.67;;;;;27.00;40.68;101285.41;4945717;28;45365;-73
2021/07/29 07:07:14;;;;;;;;;2.33;1.33;;;;;26.93;40.28;101268.56;4944536;28;45311;-72
2021/07/29 07:09:39;;;;;;;;;1.33;1.00;;;;;27.04;40.52;101283.94;4946475;28;45544;-74
2021/07/29 07:12:04;;;;;;;;;2.00;1.00;;;;;26.98;40.12;101273.28;4956829;28;45376;-73
2021/07/29 07:14:30;;;;;;;;;2.00;1.67;;;;;26.91;40.74;101260.72;4941912;28;46846;-74
2021/07/29 07:16:55;;;;;;;;;2.00;1.00;;;;;26.91;40.45;101262.56;4945493;28;45303;-74
2021/07/29 07:19:20;;;;;;;;;1.67;1.00;;;;;27.16;40.80;101304.75;4945743;28;45291;-73
2021/07/29 07:21:46;;;;;;;;;1.33;1.00;;;;;27.17;40.54;101299.19;4945222;28;45350;-74
2021/07/29 07:24:11;;;;;;;;;1.33;1.33;;;;;27.20;40.67;101289.94;4942261;28;45979;-74
2021/07/29 07:26:37;;;;;;;;;1.00;1.00;;;;;27.13;40.79;101291.81;4941043;28;45246;-74
2021/07/29 07:29:03;;;;;;;;;1.33;1.33;;;;;27.23;40.34;101305.56;4945308;28;45386;-73
2021/07/29 07:31:28;;;;;;;;;2.75;2.75;;;;;27.17;40.31;101298.38;4945641;28;45612;-75
2021/07/29 07:33:54;;;;;;;;;2.00;1.00;;;;;27.25;40.54;101300.84;4947489;28;46225;-73
2021/07/29 07:36:20;;;;;;;;;2.33;1.00;;;;;27.21;40.57;101291.59;4956022;28;45500;-74
2021/07/29 07:38:48;;;;;;;;;2.00;2.00;;;;;27.23;40.21;101299.41;4940988;28;45373;-74
2021/07/29 07:41:14;;;;;;;;;1.00;1.00;;;;;27.31;40.03;101309.06;4955006;28;45553;-74
2021/07/29 07:43:39;;;;;;;;;0.33;0.33;;;;;27.32;40.15;101318.75;4947448;28;45932;-74
2021/07/29 07:46:05;;;;;;;;;1.00;1.00;;;;;27.19;40.16;101291.00;4945256;28;45295;-74
2021/07/29 07:48:31;;;;;;;;;1.00;1.00;;;;;27.31;40.58;101303.72;4944838;28;45448;-74
2021/07/29 07:50:57;;;;;;;;;2.75;1.00;;;;;27.29;40.19;101307.44;4955890;28;45388;-72
2021/07/29 07:53:24;;;;;;;;;3.67;1.00;;;;;27.31;40.32;101309.91;4942390;28;45928;-73
2021/07/29 07:55:49;;;;;;;;;1.33;1.00;;;;;27.33;40.35;101312.34;4945131;28;45362;-73
2021/07/29 07:58:15;;;;;;;;;1.00;1.00;;;;;27.26;40.66;101302.50;4944949;28;45318;-73
2021/07/29 08:00:40;;;;;;;;;2.00;1.00;;;;;27.37;40.60;101324.28;4945213;28;45467;-73
2021/07/29 08:03:05;;;;;;;;;0.00;0.00;;;;;27.33;40.25;101315.03;4941074;28;46852;-73
2021/07/29 08:05:31;;;;;;;;;1.00;1.00;;;;;27.38;40.43;101321.41;4940974;28;45372;-74
2021/07/29 08:07:57;;;;;;;;;0.67;0.67;;;;;27.32;40.45;101311.56;4945174;28;45358;-74
2021/07/29 08:10:23;;;;;;;;;2.00;1.00;;;;;27.39;40.28;101324.91;4945046;28;45415;-73
2021/07/29 08:12:48;;;;;;;;;2.00;0.67;;;;;27.38;40.33;101315.22;4946425;28;47139;-73
2021/07/29 08:15:13;;;;;;;;;1.67;1.67;;;;;27.34;40.44;101306.00;4956092;28;45491;-74
2021/07/29 08:17:39;;;;;;;;;0.00;0.00;;;;;27.36;40.58;101299.41;4942592;28;45234;-73
2021/07/29 08:20:05;;;;;;;;;2.00;2.00;;;;;27.32;40.29;101292.03;4947375;28;45439;-73
2021/07/29 08:22:30;;;;;;;;;1.00;1.00;;;;;27.39;40.12;101309.69;4948102;28;46088;-74
2021/07/29 08:24:56;;;;;;;;;1.33;1.33;;;;;27.43;40.43;101310.09;4948095;28;45532;-73
2021/07/29 08:27:22;;;;;;;;;1.50;1.50;;;;;27.44;40.80;101311.75;4946698;28;45257;-73
2021/07/29 08:29:48;;;;;;;;;1.00;1.00;;;;;27.30;40.68;101284.19;4959425;28;45267;-73
2021/07/29 08:32:14;;;;;;;;;1.33;1.00;;;;;27.46;40.69;101306.19;4957692;28;45365;-73
2021/07/29 08:34:39;;;;;;;;;2.50;2.00;;;;;27.35;40.81;101284.41;4949961;28;45476;-73
2021/07/29 08:37:04;;;;;;;;;1.67;0.33;;;;;27.38;40.66;101289.34;4948105;28;45625;-73
2021/07/29 08:39:30;;;;;;;;;2.33;1.00;;;;;27.47;40.21;101307.84;4947478;28;45494;-73
2021/07/29 08:41:55;;;;;;;;;1.00;1.00;;;;;27.45;40.30;101299.22;4943261;28;46276;-73
2021/07/29 08:44:20;;;;;;;;;1.50;1.00;;;;;27.48;40.25;101304.94;4945466;28;45446;-73
2021/07/29 08:46:48;;;;;;;;;1.50;1.50;;;;;27.49;40.78;101306.59;4948021;28;45715;-73
2021/07/29 08:49:14;;;;;;;;;1.67;1.33;;;;;27.49;40.33;101301.25;4947737;28;45701;-73
2021/07/29 08:51:40;;;;;;;;;1.00;1.00;;;;;27.50;40.43;101307.44;4948116;28;47098;-73
2021/07/29 08:54:08;;;;;;;;;0.33;0.33;;;;;27.51;40.74;101303.72;4958861;28;45400;-73
2021/07/29 08:56:34;;;;;;;;;1.00;1.00;;;;;27.28;40.51;101264.88;4943842;28;45389;-74
2021/07/29 08:59:00;;;;;;;;;1.00;1.00;;;;;27.43;40.82;101288.72;4958616;28;45565;-73
2021/07/29 09:01:48;;;;;;;;;0.00;0.00;;;;;27.50;40.40;101302.09;4952134;28;45496;-73
2021/07/29 09:04:15;;;;;;;;;1.00;1.00;;;;;27.51;40.32;101307.22;4947214;28;45377;-73
2021/07/29 09:06:54;;;;;;;;;1.00;1.00;;;;;27.52;40.89;101302.69;4948137;28;45259;-74
2021/07/29 09:09:40;;;;;;;;;0.67;0.67;;;;;27.52;40.40;101302.69;4958773;28;45437;-73
2021/07/29 09:12:13;;;;;;;;;1.00;1.00;;;;;27.52;40.21;101300.03;4943557;28;45491;-74
2021/07/29 09:14:38;;;;;;;;;1.00;1.00;;;;;27.51;40.28;101295.69;4942949;28;45243;-73
2021/07/29 09:17:05;;;;;;;;;0.33;0.33;;;;;27.51;40.90;101296.53;4946795;28;45513;-73
2021/07/29 09:19:37;;;;;;;;;2.00;2.00;;;;;27.50;40.25;101297.56;4946004;28;45510;-73
2021/07/29 09:22:06;;;;;;;;;1.00;1.00;;;;;27.51;40.74;101301.88;4947121;28;46166;-73
2021/07/29 09:24:32;;;;;;;;;1.00;1.00;;;;;27.51;40.31;101301.03;4946643;28;45403;-73
2021/07/29 09:26:58;;;;;;;;;2.00;1.00;;;;;27.43;40.19;101291.38;4957686;28;45311;-73
2021/07/29 09:29:25;;;;;;;;;1.33;0.33;;;;;27.47;40.76;101292.63;4944007;28;45483;-73
2021/07/29 09:32:04;;;;;;;;;1.00;0.67;;;;;27.50;41.00;101294.06;4956688;28;46165;-73
2021/07/29 09:34:44;;;;;;;;;1.33;0.33;;;;;27.47;40.90;101291.81;4950716;28;45442;-73
2021/07/29 09:37:10;;;;;;;;;1.00;1.00;;;;;27.41;40.81;101282.75;4947171;28;45428;-73
2021/07/29 09:39:36;;;;;;;;;0.33;0.33;;;;;27.52;40.52;101300.84;4947120;28;45527;-73
2021/07/29 09:42:16;;;;;;;;;1.00;1.00;;;;;27.54;40.70;101299.81;4942627;28;45385;-73
2021/07/29 09:44:43;;;;;;;;;1.00;1.00;;;;;27.52;40.70;101306.19;4955484;28;45344;-73
2021/07/29 09:47:09;;;;;;;;;1.67;0.33;;;;;27.47;40.29;101295.31;4945929;28;45508;-73
2021/07/29 09:49:35;;;;;;;;;0.67;0.67;;;;;27.52;40.64;101303.53;4946982;28;45564;-73
2021/07/29 09:52:02;;;;;;;;;2.00;1.00;;;;;27.51;40.84;101304.53;4946812;28;45433;-73
2021/07/29 09:54:29;;;;;;;;;3.00;3.00;;;;;27.54;40.31;101305.16;4945661;28;45416;-73
2021/07/29 09:56:54;;;;;;;;;1.00;1.00;;;;;27.52;40.82;101303.53;4941127;28;45451;-73
2021/07/29 09:59:20;;;;;;;;;1.33;1.33;;;;;27.57;40.56;101312.75;4944553;28;45527;-73
2021/07/29 10:01:46;;;;;;;;;1.00;1.00;;;;;27.54;40.22;101297.97;4946376;28;45342;-73
2021/07/29 10:04:12;;;;;;;;;1.00;1.00;;;;;27.51;40.13;101301.88;4946662;28;45411;-73
2021/07/29 10:06:41;;;;;;;;;1.67;1.00;;;;;27.55;40.89;101301.47;4946694;28;45295;-73
2021/07/29 10:09:15;;;;;;;;;4.00;4.00;;;;;27.59;40.45;101306.19;4942898;28;45256;-73
2021/07/29 10:11:48;;;;;;;;;3.00;1.00;;;;;27.58;40.73;101309.06;4957609;28;45275;-74
2021/07/29 10:14:45;;;;;;;;;1.00;1.00;;;;;27.58;40.24;101312.56;4942950;28;45414;-73
2021/07/29 10:17:11;;;;;;;;;0.33;0.33;;;;;27.51;40.46;101295.69;4957711;28;45476;-74
2021/07/29 10:20:11;;;;;;;;;2.00;2.00;;;;;27.59;40.57;101316.03;4949154;28;45449;-73
2021/07/29 10:22:37;;;;;;;;;1.00;1.00;;;;;27.58;40.89;101311.75;4954295;28;46378;-73
2021/07/29 10:25:02;;;;;;;;;0.00;0.00;;;;;27.56;40.88;101293.22;4957144;28;45405;-74
2021/07/29 10:27:28;;;;;;;;;2.33;1.00;;;;;27.43;40.76;101278.03;4957632;28;45479;-73
2021/07/29 10:30:14;;;;;;;;;1.00;1.00;;;;;27.58;40.87;101299.22;4941553;28;45570;-73
2021/07/29 10:32:46;;;;;;;;;2.00;0.00;;;;;27.53;40.71;101282.97;4954411;28;46275;-73
2021/07/29 10:35:29;;;;;;;;;2.00;1.00;;;;;27.59;40.83;101297.34;4957419;28;45265;-73
2021/07/29 10:37:55;;;;;;;;;4.00;0.33;;;;;27.58;40.44;101298.38;4946616;28;45308;-73
2021/07/29 10:40:34;;;;;;;;;1.00;1.00;;;;;27.59;40.67;101300.84;4945023;28;45454;-73
2021/07/29 10:43:25;;;;;;;;;3.00;2.00;;;;;27.58;40.54;101301.88;4945887;28;47054;-73
2021/07/29 10:45:51;;;;;;;;;2.00;1.00;;;;;27.58;40.53;101290.38;4945493;28;47191;-73
2021/07/29 10:48:38;;;;;;;;;2.00;1.67;;;;;27.57;40.42;101294.06;4943532;28;45366;-74
2021/07/29 10:51:17;;;;;;;;;1.75;1.75;;;;;27.56;40.66;101298.56;4957154;28;45214;-73
2021/07/29 10:53:48;;;;;;;;;2.33;1.00;;;;;27.56;40.54;101298.56;4954307;28;46336;-73
2021/07/29 10:56:22;;;;;;;;;1.00;1.00;;;;;27.54;40.46;101289.94;4944344;28;45297;-73
2021/07/29 10:58:52;;;;;;;;;3.00;0.00;;;;;27.54;40.59;101291.78;4945630;28;45535;-73
2021/07/29 11:01:18;;;;;;;;;2.33;1.00;;;;;27.42;40.69;101271.06;4945980;28;45514;-74
2021/07/29 11:03:48;;;;;;;;;2.00;2.00;;;;;27.58;40.59;101293.03;4946601;28;46464;-73
2021/07/29 11:06:39;;;;;;;;;1.00;1.00;;;;;27.52;40.07;101279.47;4956706;28;45371;-73
2021/07/29 11:09:13;;;;;;;;;0.33;0.33;;;;;27.57;40.18;101289.53;4941408;28;45472;-73
2021/07/29 11:11:39;;;;;;;;;1.00;1.00;;;;;27.44;40.63;101266.31;4953984;28;45432;-73
2021/07/29 11:14:04;;;;;;;;;2.25;2.25;;;;;27.47;40.51;101265.91;4944613;28;46275;-73
2021/07/29 11:16:31;;;;;;;;;1.67;1.67;;;;;27.59;40.39;101282.13;4945630;28;45350;-73
2021/07/29 11:19:01;;;;;;;;;3.00;1.33;;;;;27.59;40.20;101281.28;4945756;28;45452;-73
2021/07/29 11:21:26;;;;;;;;;2.33;1.67;;;;;27.59;40.74;101273.28;4944102;28;45509;-73
2021/07/29 11:23:52;;;;;;;;;1.67;1.67;;;;;27.53;40.44;101264.28;4940807;28;45545;-73
2021/07/29 11:26:17;;;;;;;;;3.67;1.00;;;;;27.59;40.23;101275.94;4943659;28;45435;-74